createdAt,value
2023-03-12T00:01:02.785Z,87.38
2023-03-12T00:03:40.562Z,87.31
2023-03-12T00:06:15.823Z,87.25
2023-03-12T00:08:49.144Z,87.09
2023-03-12T00:11:24.403Z,87.20
2023-03-12T00:14:17.582Z,87.25
2023-03-12T00:17:04.177Z,87.29
2023-03-12T00:19:57.463Z,87.56
2023-03-12T00:22:44.675Z,87.70
2023-03-12T00:25:31.930Z,87.67
2023-03-12T00:28:17.016Z,87.75
2023-03-12T00:30:55.395Z,87.80
2023-03-12T00:33:35.665Z,87.63
2023-03-12T00:36:10.283Z,87.40
2023-03-12T00:38:52.330Z,87.46
2023-03-12T00:41:26.293Z,87.51
2023-03-12T00:44:19.101Z,87.50
2023-03-12T00:47:04.791Z,87.34
2023-03-12T00:49:43.185Z,87.57
2023-03-12T00:52:34.869Z,87.53
2023-03-12T00:55:27.704Z,87.59
2023-03-12T00:58:10.447Z,87.80
2023-03-12T01:00:48.203Z,87.99
2023-03-12T01:03:41.202Z,88.09
2023-03-12T01:06:34.092Z,88.19
2023-03-12T01:09:15.540Z,88.36
2023-03-12T01:12:09.531Z,88.34
2023-03-12T01:14:44.964Z,88.33
2023-03-12T01:17:39.666Z,88.22
2023-03-12T01:20:32.618Z,88.20
2023-03-12T01:23:18.552Z,88.46
2023-03-12T01:25:57.257Z,87.97
2023-03-12T01:28:33.047Z,88.01
2023-03-12T01:31:26.208Z,88.03
2023-03-12T01:34:19.070Z,88.09
2023-03-12T01:36:55.511Z,88.04
2023-03-12T01:39:49.485Z,88.06
2023-03-12T01:42:35.181Z,88.28
2023-03-12T01:45:41.860Z,88.32
2023-03-12T01:48:15.061Z,88.65
2023-03-12T01:51:01.000Z,88.63
2023-03-12T01:53:48.932Z,88.68
2023-03-12T01:56:27.946Z,88.54
2023-03-12T01:59:08.405Z,88.75
2023-03-12T02:01:48.928Z,88.65
2023-03-12T02:04:27.069Z,88.48
2023-03-12T02:07:12.856Z,88.33
2023-03-12T02:09:52.762Z,88.06
2023-03-12T02:12:44.792Z,88.21
2023-03-12T02:15:21.264Z,87.90
2023-03-12T02:18:07.434Z,87.81
2023-03-12T02:21:09.675Z,87.93
2023-03-12T02:23:52.289Z,87.78
2023-03-12T02:26:25.955Z,87.95
2023-03-12T02:29:11.809Z,87.42
2023-03-12T02:32:07.062Z,86.94
2023-03-12T02:34:52.490Z,87.33
2023-03-12T02:37:30.733Z,87.25
2023-03-12T02:40:19.800Z,86.60
2023-03-12T02:42:56.888Z,86.52
2023-03-12T02:45:35.232Z,86.60
2023-03-12T02:48:21.602Z,86.66
2023-03-12T02:50:58.326Z,86.99
2023-03-12T02:53:41.066Z,87.15
2023-03-12T02:56:25.184Z,87.44
2023-03-12T02:58:58.685Z,87.71
2023-03-12T03:01:57.316Z,87.76
2023-03-12T03:04:50.231Z,88.08
2023-03-12T03:07:36.930Z,88.35
2023-03-12T03:10:29.821Z,88.37
2023-03-12T03:13:16.911Z,88.57
2023-03-12T03:16:02.154Z,88.54
2023-03-12T03:18:53.507Z,88.82
2023-03-12T03:21:47.694Z,88.95
2023-03-12T03:24:40.486Z,88.97
2023-03-12T03:27:26.283Z,88.86
2023-03-12T03:30:12.230Z,89.07
2023-03-12T03:32:58.000Z,89.17
2023-03-12T03:35:45.007Z,89.27
2023-03-12T03:38:38.137Z,89.51
2023-03-12T03:41:14.460Z,89.56
2023-03-12T03:43:51.639Z,89.98
2023-03-12T03:46:28.078Z,89.69
2023-03-12T03:49:05.605Z,89.65
2023-03-12T03:51:47.694Z,89.64
2023-03-12T03:54:26.771Z,89.49
2023-03-12T03:57:10.050Z,89.56
2023-03-12T03:59:53.190Z,89.42
2023-03-12T04:02:30.261Z,89.31
2023-03-12T04:05:03.753Z,89.20
2023-03-12T04:07:40.328Z,89.20
2023-03-12T04:10:17.188Z,89.23
2023-03-12T04:12:59.930Z,89.16
2023-03-12T04:15:34.780Z,89.09
2023-03-12T04:18:11.008Z,89.14
2023-03-12T04:20:54.498Z,88.87
2023-03-12T04:23:27.816Z,88.89
2023-03-12T04:26:03.736Z,88.84
2023-03-12T04:28:40.676Z,88.64
2023-03-12T04:31:14.702Z,88.37
2023-03-12T04:33:52.197Z,88.39
2023-03-12T04:36:28.539Z,88.27
2023-03-12T04:39:02.451Z,88.30
2023-03-12T04:41:38.296Z,88.13
2023-03-12T04:44:15.470Z,88.09
2023-03-12T04:46:50.502Z,87.95
2023-03-12T04:49:25.476Z,87.75
2023-03-12T04:52:00.623Z,87.68
2023-03-12T04:54:54.150Z,87.79
2023-03-12T04:57:30.456Z,87.69
2023-03-12T05:00:05.514Z,87.60
2023-03-12T05:02:40.527Z,87.40
2023-03-12T05:05:15.025Z,87.39
2023-03-12T05:07:48.315Z,87.27
2023-03-12T05:10:25.006Z,87.21
2023-03-12T05:12:58.083Z,87.01
2023-03-12T05:15:32.421Z,87.02
2023-03-12T05:18:08.617Z,87.04
2023-03-12T05:20:42.056Z,87.19
2023-03-12T05:23:17.984Z,87.25
2023-03-12T05:25:53.060Z,87.15
2023-03-12T05:28:29.413Z,87.12
2023-03-12T05:31:10.209Z,87.09
2023-03-12T05:33:47.571Z,86.84
2023-03-12T05:36:23.603Z,86.69
2023-03-12T05:39:00.221Z,86.53
2023-03-12T05:41:35.231Z,86.33
2023-03-12T05:44:17.350Z,86.37
2023-03-12T05:46:54.298Z,86.15
2023-03-12T05:49:32.003Z,86.20
2023-03-12T05:52:08.400Z,86.27
2023-03-12T05:54:42.076Z,85.93
2023-03-12T05:57:18.223Z,85.34
2023-03-12T05:59:52.284Z,85.02
2023-03-12T06:06:57.725Z,84.45
2023-03-12T06:09:51.301Z,84.07
2023-03-12T06:12:44.904Z,83.43
2023-03-12T06:15:38.733Z,82.46
2023-03-12T06:18:24.482Z,81.88
2023-03-12T06:21:20.024Z,81.62
2023-03-12T06:24:13.925Z,81.26
2023-03-12T06:27:10.773Z,80.56
2023-03-12T06:30:06.849Z,80.26
2023-03-12T06:33:04.105Z,79.84
2023-03-12T06:36:01.935Z,79.34
2023-03-12T06:38:57.126Z,79.17
2023-03-12T06:41:50.538Z,78.61
2023-03-12T06:44:47.210Z,78.32
2023-03-12T06:47:41.238Z,78.21
2023-03-12T06:50:34.828Z,77.31
2023-03-12T06:53:19.319Z,77.15
2023-03-12T06:56:06.373Z,76.66
2023-03-12T06:59:01.031Z,76.28
2023-03-12T07:01:54.552Z,76.56
2023-03-12T07:04:40.389Z,75.82
2023-03-12T07:07:34.580Z,75.63
2023-03-12T07:10:11.390Z,75.53
2023-03-12T07:13:04.944Z,75.43
2023-03-12T07:15:58.771Z,75.14
2023-03-12T07:18:52.456Z,74.87
2023-03-12T07:21:46.923Z,74.58
2023-03-12T07:24:41.204Z,73.44
2023-03-12T07:27:34.868Z,72.78
2023-03-12T07:30:28.528Z,72.75
2023-03-12T07:33:23.886Z,72.35
2023-03-12T07:36:18.106Z,72.09
2023-03-12T07:39:12.447Z,72.48
2023-03-12T07:42:06.631Z,73.17
2023-03-12T07:45:00.274Z,72.46
2023-03-12T07:47:54.478Z,72.50
2023-03-12T07:50:42.324Z,72.91
2023-03-12T07:53:36.554Z,72.50
2023-03-12T07:56:30.315Z,72.84
2023-03-12T07:59:25.651Z,72.15
2023-03-12T08:02:21.917Z,71.66
2023-03-12T08:05:17.296Z,71.28
2023-03-12T08:08:13.271Z,71.38
2023-03-12T08:11:08.783Z,71.45
2023-03-12T08:14:02.939Z,70.85
2023-03-12T08:16:56.504Z,70.84
2023-03-12T08:19:51.487Z,70.01
2023-03-12T08:22:47.011Z,70.09
2023-03-12T08:25:42.476Z,70.28
2023-03-12T08:28:36.304Z,70.29
2023-03-12T08:31:29.911Z,70.10
2023-03-12T08:34:23.507Z,69.26
2023-03-12T08:37:18.276Z,69.21
2023-03-12T08:40:16.810Z,67.84
2023-03-12T08:43:10.645Z,68.67
2023-03-12T08:46:07.633Z,68.79
2023-03-12T08:49:00.944Z,68.21
2023-03-12T08:51:37.258Z,68.06
2023-03-12T08:54:20.660Z,68.11
2023-03-12T08:57:15.753Z,68.17
2023-03-12T09:00:15.225Z,68.01
2023-03-12T09:02:54.407Z,67.83
2023-03-12T09:05:30.522Z,67.89
2023-03-12T09:08:23.543Z,68.35
2023-03-12T09:11:17.473Z,68.20
2023-03-12T09:17:10.874Z,66.80
2023-03-12T09:20:07.030Z,66.36
2023-03-12T09:22:50.123Z,64.43
2023-03-12T09:25:34.265Z,64.05
2023-03-12T09:28:16.568Z,63.03
2023-03-12T09:31:02.706Z,61.08
2023-03-12T09:33:56.216Z,61.11
2023-03-12T09:36:31.915Z,60.13
2023-03-12T09:39:26.039Z,60.86
2023-03-12T09:42:16.481Z,61.06
2023-03-12T09:45:01.723Z,62.19
2023-03-12T09:47:44.638Z,61.57
2023-03-12T09:50:27.299Z,61.37
2023-03-12T09:53:28.626Z,62.53
2023-03-12T09:56:17.224Z,60.94
2023-03-12T09:59:03.902Z,60.65
2023-03-12T10:01:43.420Z,60.50
2023-03-12T10:04:58.200Z,59.49
2023-03-12T10:07:53.368Z,59.73
2023-03-12T10:10:46.479Z,59.96
2023-03-12T10:13:58.740Z,59.82
2023-03-12T10:16:45.096Z,59.85
2023-03-12T10:19:43.163Z,60.35
2023-03-12T10:22:33.509Z,61.56
2023-03-12T10:25:35.322Z,61.06
2023-03-12T10:28:19.939Z,61.18
2023-03-12T10:31:08.479Z,60.02
2023-03-12T10:34:05.555Z,59.96
2023-03-12T10:37:04.434Z,60.11
2023-03-12T10:39:41.340Z,59.12
2023-03-12T10:42:29.728Z,60.17
2023-03-12T10:45:30.985Z,59.98
2023-03-12T10:48:26.352Z,60.24
2023-03-12T10:51:20.104Z,58.80
2023-03-12T10:54:24.844Z,58.75
2023-03-12T10:56:57.657Z,58.23
2023-03-12T10:59:34.845Z,59.42
2023-03-12T11:02:34.589Z,58.20
2023-03-12T11:05:29.491Z,55.95
2023-03-12T11:08:27.286Z,56.22
2023-03-12T11:11:12.128Z,57.17
2023-03-12T11:14:10.125Z,58.44
2023-03-12T11:16:43.212Z,56.05
2023-03-12T11:19:32.794Z,54.69
2023-03-12T11:22:11.712Z,55.41
2023-03-12T11:25:07.501Z,56.84
2023-03-12T11:28:04.198Z,54.83
2023-03-12T11:30:40.934Z,55.12
2023-03-12T11:33:14.499Z,54.54
2023-03-12T11:36:02.094Z,54.69
2023-03-12T11:38:51.745Z,54.88
2023-03-12T11:41:48.648Z,54.82
2023-03-12T11:44:32.450Z,55.29
2023-03-12T11:47:39.430Z,56.75
2023-03-12T11:50:43.862Z,55.91
2023-03-12T11:53:37.934Z,55.37
2023-03-12T11:56:30.384Z,56.59
2023-03-12T11:59:26.488Z,57.53
2023-03-12T12:02:32.137Z,58.80
2023-03-12T12:05:40.131Z,58.31
2023-03-12T12:08:50.418Z,58.86
2023-03-12T12:11:33.170Z,59.31
2023-03-12T12:14:17.435Z,58.74
2023-03-12T12:17:06.367Z,58.66
2023-03-12T12:20:09.446Z,55.60
2023-03-12T12:23:08.607Z,54.89
2023-03-12T12:26:14.983Z,54.75
2023-03-12T12:29:29.532Z,54.65
2023-03-12T12:32:31.906Z,54.97
2023-03-12T12:35:28.297Z,55.03
2023-03-12T12:38:30.418Z,56.14
2023-03-12T12:41:27.376Z,54.99
2023-03-12T12:44:35.181Z,54.35
2023-03-12T12:47:35.605Z,54.20
2023-03-12T12:50:34.575Z,55.35
2023-03-12T12:53:17.098Z,53.95
2023-03-12T12:56:01.837Z,53.79
2023-03-12T12:59:25.332Z,53.38
2023-03-12T13:02:22.415Z,53.28
2023-03-12T13:05:45.584Z,52.07
2023-03-12T13:09:02.617Z,51.78
2023-03-12T13:11:58.419Z,51.33
2023-03-12T13:14:45.246Z,51.80
2023-03-12T13:17:29.904Z,52.37
2023-03-12T13:20:20.986Z,51.71
2023-03-12T13:23:32.152Z,52.62
2023-03-12T13:26:16.885Z,53.14
2023-03-12T13:29:39.928Z,53.90
2023-03-12T13:33:04.977Z,54.60
2023-03-12T13:36:12.965Z,53.11
2023-03-12T13:39:30.022Z,53.37
2023-03-12T13:42:43.337Z,53.54
2023-03-12T13:45:42.414Z,53.02
2023-03-12T13:48:45.574Z,53.66
2023-03-12T13:51:47.423Z,53.09
2023-03-12T13:54:29.866Z,53.19
2023-03-12T13:57:27.700Z,51.94
2023-03-12T14:00:27.987Z,51.47
2023-03-12T14:03:25.395Z,52.05
2023-03-12T14:06:14.898Z,51.54
2023-03-12T14:09:24.399Z,51.31
2023-03-12T14:12:23.989Z,50.78
2023-03-12T14:15:21.544Z,49.50
2023-03-12T14:18:21.485Z,49.79
2023-03-12T14:21:09.654Z,49.92
2023-03-12T14:23:57.251Z,50.71
2023-03-12T14:26:50.197Z,50.38
2023-03-12T14:29:40.275Z,50.56
2023-03-12T14:32:30.054Z,50.50
2023-03-12T14:35:26.021Z,50.25
2023-03-12T14:38:24.845Z,50.00
2023-03-12T14:41:14.677Z,51.21
2023-03-12T14:44:06.003Z,52.18
2023-03-12T14:47:12.445Z,52.86
2023-03-12T14:50:05.456Z,52.91
2023-03-12T14:52:47.421Z,53.49
2023-03-12T14:55:25.797Z,52.78
2023-03-12T14:58:22.716Z,53.06
2023-03-12T15:01:27.981Z,53.55
2023-03-12T15:04:18.946Z,53.71
2023-03-12T15:07:19.404Z,54.66
2023-03-12T15:10:24.467Z,55.45
2023-03-12T15:13:20.979Z,54.42
2023-03-12T15:16:16.522Z,54.04
2023-03-12T15:19:11.766Z,53.90
2023-03-12T15:21:55.169Z,53.99
2023-03-12T15:24:45.332Z,54.17
2023-03-12T15:27:37.360Z,54.63
2023-03-12T15:30:30.435Z,55.07
2023-03-12T15:33:26.376Z,54.55
2023-03-12T15:36:29.879Z,54.51
2023-03-12T15:39:29.908Z,54.90
2023-03-12T15:42:26.123Z,55.31
2023-03-12T15:45:20.767Z,56.15
2023-03-12T15:48:24.363Z,56.31
2023-03-12T15:51:29.643Z,56.75
2023-03-12T15:54:29.065Z,56.55
2023-03-12T15:57:26.807Z,57.22
2023-03-12T16:00:29.812Z,57.03
2023-03-12T16:03:23.346Z,57.70
2023-03-12T16:06:19.557Z,57.95
2023-03-12T16:09:17.118Z,58.50
2023-03-12T16:12:01.483Z,58.76
2023-03-12T16:14:55.886Z,59.20
2023-03-12T16:17:50.832Z,59.74
2023-03-12T16:20:44.738Z,59.71
2023-03-12T16:23:40.174Z,60.14
2023-03-12T16:26:34.025Z,60.20
2023-03-12T16:29:07.434Z,60.69
2023-03-12T16:31:43.585Z,60.74
2023-03-12T16:34:20.237Z,60.91
2023-03-12T16:36:56.740Z,61.22
2023-03-12T16:39:33.235Z,61.68
2023-03-12T16:42:16.297Z,62.10
2023-03-12T16:44:49.735Z,62.38
2023-03-12T16:47:22.777Z,62.56
2023-03-12T16:49:55.630Z,62.59
2023-03-12T16:52:28.416Z,63.04
2023-03-12T16:55:01.083Z,63.03
2023-03-12T16:57:37.313Z,63.53
2023-03-12T17:00:16.973Z,63.50
2023-03-12T17:02:51.866Z,63.80
2023-03-12T17:05:26.248Z,63.95
2023-03-12T17:08:02.433Z,64.25
2023-03-12T17:10:35.190Z,64.38
2023-03-12T17:13:13.729Z,64.72
2023-03-12T17:15:49.869Z,64.92
2023-03-12T17:18:22.919Z,65.11
2023-03-12T17:20:58.230Z,65.35
2023-03-12T17:23:33.499Z,66.06
2023-03-12T17:26:06.405Z,65.44
2023-03-12T17:28:42.141Z,65.60
2023-03-12T17:31:18.156Z,65.61
2023-03-12T17:33:53.643Z,65.60
2023-03-12T17:36:28.863Z,65.76
2023-03-12T17:39:01.704Z,65.75
2023-03-12T17:41:36.627Z,65.70
2023-03-12T17:44:10.198Z,65.82
2023-03-12T17:46:56.459Z,65.88
2023-03-12T17:49:34.730Z,66.12
2023-03-12T17:52:17.739Z,66.19
2023-03-12T17:54:50.366Z,66.49
2023-03-12T17:57:28.455Z,66.47
2023-03-12T18:00:10.286Z,66.38
2023-03-12T18:02:44.903Z,66.41
2023-03-12T18:05:18.097Z,66.35
2023-03-12T18:07:51.994Z,66.54
2023-03-12T18:10:26.704Z,66.42
2023-03-12T18:12:59.317Z,66.54
2023-03-12T18:15:35.070Z,66.68
2023-03-12T18:18:08.076Z,66.73
2023-03-12T18:20:43.482Z,66.53
2023-03-12T18:23:16.600Z,66.56
2023-03-12T18:25:49.618Z,66.43
2023-03-12T18:28:22.784Z,66.48
2023-03-12T18:30:56.518Z,66.39
2023-03-12T18:33:32.998Z,66.50
2023-03-12T18:36:06.613Z,66.43
2023-03-12T18:38:39.615Z,66.39
2023-03-12T18:41:13.551Z,66.50
2023-03-12T18:43:48.394Z,66.52
2023-03-12T18:46:24.606Z,66.63
2023-03-12T18:48:57.715Z,66.71
2023-03-12T18:51:32.556Z,67.28
2023-03-12T18:54:05.689Z,67.68
2023-03-12T18:56:41.058Z,67.76
2023-03-12T18:59:15.001Z,68.04
2023-03-12T19:01:48.029Z,68.35
2023-03-12T19:04:22.174Z,68.80
2023-03-12T19:06:56.545Z,68.91
2023-03-12T19:09:39.732Z,69.30
2023-03-12T19:12:12.417Z,69.47
2023-03-12T19:14:48.207Z,69.53
2023-03-12T19:17:23.184Z,69.44
2023-03-12T19:19:55.871Z,69.80
2023-03-12T19:22:28.511Z,70.00
2023-03-12T19:25:01.337Z,70.07
2023-03-12T19:27:33.959Z,70.09
2023-03-12T19:30:13.900Z,70.10
2023-03-12T19:32:46.703Z,70.01
2023-03-12T19:35:23.134Z,69.89
2023-03-12T19:37:56.094Z,69.99
2023-03-12T19:40:31.712Z,69.98
2023-03-12T19:43:05.936Z,70.25
2023-03-12T19:45:39.601Z,70.39
2023-03-12T19:48:12.324Z,70.74
2023-03-12T19:50:45.208Z,71.09
2023-03-12T19:53:21.041Z,70.96
2023-03-12T19:55:54.334Z,71.24
2023-03-12T19:58:27.089Z,71.34
2023-03-12T20:01:02.553Z,71.52
2023-03-12T20:03:35.237Z,71.73
2023-03-12T20:06:13.996Z,72.01
2023-03-12T20:08:49.223Z,72.00
2023-03-12T20:11:21.970Z,72.01
2023-03-12T20:13:54.794Z,72.18
2023-03-12T20:16:27.691Z,72.25
2023-03-12T20:19:11.644Z,72.25
2023-03-12T20:21:44.630Z,72.20
2023-03-12T20:24:17.605Z,72.32
2023-03-12T20:26:50.256Z,72.33
2023-03-12T20:29:23.206Z,72.26
2023-03-12T20:31:56.104Z,72.19
2023-03-12T20:34:31.898Z,72.20
2023-03-12T20:37:09.228Z,72.21
2023-03-12T20:39:43.122Z,72.24
2023-03-12T20:42:19.192Z,72.29
2023-03-12T20:44:54.405Z,72.25
2023-03-12T20:47:27.110Z,72.41
2023-03-12T20:49:59.869Z,72.50
2023-03-12T20:52:35.109Z,72.41
2023-03-12T20:55:09.290Z,72.45
2023-03-12T20:57:43.770Z,72.09
2023-03-12T21:00:21.640Z,71.88
2023-03-12T21:03:00.014Z,71.79
2023-03-12T21:05:33.912Z,71.66
2023-03-12T21:08:09.430Z,71.67
2023-03-12T21:10:42.340Z,71.66
2023-03-12T21:13:15.395Z,71.62
2023-03-12T21:15:53.463Z,71.62
2023-03-12T21:18:31.083Z,71.62
2023-03-12T21:21:14.028Z,71.41
2023-03-12T21:23:47.004Z,71.40
2023-03-12T21:26:22.872Z,71.25
2023-03-12T21:28:55.731Z,71.31
2023-03-12T21:31:31.742Z,71.45
2023-03-12T21:34:16.061Z,71.61
2023-03-12T21:36:53.334Z,71.86
2023-03-12T21:39:27.303Z,71.69
2023-03-12T21:42:03.316Z,71.90
2023-03-12T21:44:39.745Z,71.96
2023-03-12T21:47:13.329Z,71.85
2023-03-12T21:49:49.139Z,71.77
2023-03-12T21:52:22.045Z,71.67
2023-03-12T21:54:55.088Z,71.44
2023-03-12T21:57:29.009Z,71.40
2023-03-12T22:00:02.629Z,71.48
2023-03-12T22:02:36.864Z,71.54
2023-03-12T22:05:13.574Z,71.56
2023-03-12T22:07:46.548Z,71.78
2023-03-12T22:10:19.472Z,71.83
2023-03-12T22:12:52.231Z,71.92
2023-03-12T22:15:25.047Z,71.95
2023-03-12T22:17:57.870Z,72.04
2023-03-12T22:20:54.911Z,72.05
2023-03-12T22:23:27.820Z,72.11
2023-03-12T22:26:05.100Z,72.20
2023-03-12T22:28:39.124Z,72.20
2023-03-12T22:31:12.198Z,72.03
2023-03-12T22:33:55.319Z,71.85
2023-03-12T22:36:27.998Z,71.63
2023-03-12T22:39:00.888Z,71.53
2023-03-12T22:41:34.585Z,71.49
2023-03-12T22:44:10.716Z,71.17
2023-03-12T22:46:48.180Z,71.14
2023-03-12T22:49:32.190Z,71.01
2023-03-12T22:52:04.928Z,70.82
2023-03-12T22:54:51.893Z,70.80
2023-03-12T22:57:27.532Z,70.94
2023-03-12T23:00:04.360Z,71.05
2023-03-12T23:02:41.462Z,71.08
2023-03-12T23:05:19.767Z,71.04
2023-03-12T23:07:52.877Z,71.03
2023-03-12T23:10:28.078Z,71.06
2023-03-12T23:13:25.184Z,71.11
2023-03-12T23:16:04.570Z,71.14
2023-03-12T23:18:38.497Z,71.50
2023-03-12T23:21:32.103Z,71.54
2023-03-12T23:24:08.282Z,71.68
2023-03-12T23:27:03.077Z,71.61
2023-03-12T23:29:36.511Z,71.29
2023-03-12T23:32:29.464Z,71.54
2023-03-12T23:35:03.678Z,71.46
2023-03-12T23:37:39.743Z,71.30
2023-03-12T23:40:17.050Z,71.08
2023-03-12T23:42:52.790Z,70.90
2023-03-12T23:45:29.721Z,70.73
2023-03-12T23:48:05.583Z,70.69
2023-03-12T23:50:38.488Z,70.56
2023-03-12T23:53:32.873Z,70.59
2023-03-12T23:56:08.007Z,70.70
2023-03-12T23:59:00.943Z,70.65
